Time;durP1;ratioP1;P1;durP2;ratioP2;P2;SDS_P1;SDS_P2;PMS_P1;PMS_P2;Temp;Humidity;BMP_temperature;BMP_pressure;BME280_temperature;BME280_humidity;BME280_pressure;Samples;Min_cycle;Max_cycle;Signal;HPM_P1;HPM_P2
2023/11/17 00:01:28;;;;;;;5.88;4.43;;;;;;;2.62;96.50;100566.25;7393428;19;20368;-59
2023/11/17 00:03:55;;;;;;;5.65;4.70;;;;;;;2.61;96.60;100573.28;7392123;19;20399;-60
2023/11/17 00:06:24;;;;;;;4.85;4.25;;;;;;;2.59;96.51;100576.97;7394995;19;20364;-59
2023/11/17 00:08:55;;;;;;;5.38;4.70;;;;;;;2.58;96.65;100575.31;7395781;19;20685;-60
2023/11/17 00:11:22;;;;;;;5.00;4.50;;;;;;;2.59;96.44;100574.34;7393335;19;20697;-59
2023/11/17 00:13:52;;;;;;;5.10;4.35;;;;;;;2.58;96.94;100585.81;7394875;19;20372;-60
2023/11/17 00:16:18;;;;;;;6.30;4.70;;;;;;;2.57;96.85;100584.97;7395000;19;20349;-59
2023/11/17 00:18:45;;;;;;;5.25;4.40;;;;;;;2.64;97.00;100587.91;7393744;19;20367;-59
2023/11/17 00:21:13;;;;;;;5.00;4.25;;;;;;;2.67;96.99;100584.22;7393773;19;20884;-59
2023/11/17 00:23:40;;;;;;;5.38;4.28;;;;;;;2.71;96.91;100585.63;7393438;19;20341;-60
2023/11/17 00:26:08;;;;;;;4.80;4.30;;;;;;;2.74;96.80;100585.34;7390903;19;20365;-59
2023/11/17 00:28:42;;;;;;;5.15;4.63;;;;;;;2.81;96.82;100589.97;7393741;19;20368;-59
2023/11/17 00:31:10;;;;;;;5.10;4.60;;;;;;;2.85;96.98;100594.00;7390900;19;20370;-60
2023/11/17 00:33:37;;;;;;;4.93;4.43;;;;;;;2.89;96.45;100593.72;7393456;19;20367;-60
2023/11/17 00:36:06;;;;;;;5.55;4.50;;;;;;;2.91;96.57;100591.81;7394797;19;20899;-60
2023/11/17 00:38:33;;;;;;;6.97;4.82;;;;;;;2.92;96.81;100598.72;7391685;19;20377;-58
2023/11/17 00:41:02;;;;;;;5.40;4.77;;;;;;;2.94;96.52;100600.25;7392931;19;20851;-59
2023/11/17 00:43:33;;;;;;;6.25;5.10;;;;;;;2.95;96.55;100599.28;7393014;19;20436;-58
2023/11/17 00:46:00;;;;;;;6.65;5.10;;;;;;;2.97;96.55;100601.78;7393773;19;20372;-59
2023/11/17 00:48:28;;;;;;;6.40;5.00;;;;;;;2.96;96.81;100594.91;7390747;19;20400;-59
2023/11/17 00:50:56;;;;;;;5.68;4.60;;;;;;;2.97;96.42;100591.31;7393379;19;20356;-59
2023/11/17 00:53:26;;;;;;;5.93;4.83;;;;;;;2.94;96.65;100591.56;7389790;19;20383;-59
2023/11/17 00:55:53;;;;;;;5.47;4.97;;;;;;;2.90;96.29;100593.59;7393658;19;20411;-60
2023/11/17 00:58:21;;;;;;;7.07;5.38;;;;;;;2.86;96.47;100595.66;7390777;19;20375;-59
2023/11/17 01:00:48;;;;;;;6.22;5.18;;;;;;;2.81;96.42;100600.44;7391165;19;20381;-60
2023/11/17 01:03:16;;;;;;;5.95;5.10;;;;;;;2.77;96.84;100606.06;7392318;19;20879;-58
2023/11/17 01:05:43;;;;;;;5.90;5.20;;;;;;;2.72;96.96;100606.47;7393611;19;20353;-59
2023/11/17 01:08:10;;;;;;;6.22;5.63;;;;;;;2.69;96.77;100609.31;7393459;19;20380;-58
2023/11/17 01:10:37;;;;;;;6.95;5.63;;;;;;;2.65;96.92;100607.91;7393429;19;20511;-59
2023/11/17 01:13:06;;;;;;;7.20;5.72;;;;;;;2.59;97.03;100616.25;7390817;19;20361;-61
2023/11/17 01:15:34;;;;;;;7.13;6.10;;;;;;;2.56;97.12;100621.75;7391380;19;20852;-58
2023/11/17 01:18:03;;;;;;;7.63;6.20;;;;;;;2.51;97.44;100622.13;7390523;19;20380;-59
2023/11/17 01:20:31;;;;;;;7.32;6.30;;;;;;;2.49;97.65;100623.19;7389993;19;20773;-59
2023/11/17 01:23:01;;;;;;;6.80;6.05;;;;;;;2.47;97.43;100630.38;7388881;19;20365;-58
2023/11/17 01:25:32;;;;;;;6.32;5.68;;;;;;;2.43;97.54;100625.34;7390032;19;20384;-60
2023/11/17 01:28:00;;;;;;;7.00;6.18;;;;;;;2.43;97.70;100625.34;7387669;19;20879;-61
2023/11/17 01:30:30;;;;;;;7.80;6.97;;;;;;;2.41;97.59;100631.69;7388526;19;20392;-60
2023/11/17 01:32:57;;;;;;;8.40;6.70;;;;;;;2.36;97.81;100634.66;7385934;19;20355;-60
2023/11/17 01:35:24;;;;;;;8.13;6.77;;;;;;;2.35;97.63;100626.94;7390833;19;20405;-57
2023/11/17 01:37:51;;;;;;;8.10;6.70;;;;;;;2.33;97.66;100634.09;7391554;19;20863;-59
2023/11/17 01:40:19;;;;;;;8.23;6.68;;;;;;;2.32;97.63;100648.97;7391313;19;20380;-61
2023/11/17 01:42:47;;;;;;;8.45;7.03;;;;;;;2.29;97.87;100649.19;7389046;19;20365;-59
2023/11/17 01:45:14;;;;;;;9.02;6.50;;;;;;;2.28;98.16;100658.00;7391311;19;20359;-58
2023/11/17 01:47:42;;;;;;;8.10;6.63;;;;;;;2.25;98.07;100663.47;7390020;19;20376;-56
2023/11/17 01:50:12;;;;;;;7.25;6.45;;;;;;;2.24;98.12;100662.66;7392100;19;20427;-60
2023/11/17 01:52:40;;;;;;;7.85;6.60;;;;;;;2.23;98.50;100668.84;7387346;19;20896;-58
2023/11/17 01:55:11;;;;;;;7.00;6.07;;;;;;;2.23;98.55;100676.69;7391397;19;20372;-58
2023/11/17 01:57:39;;;;;;;9.52;6.53;;;;;;;2.23;98.77;100675.84;7389509;19;20364;-59
2023/11/17 02:00:13;;;;;;;7.47;6.53;;;;;;;2.23;98.66;100683.69;7390068;19;20468;-58
2023/11/17 02:02:49;;;;;;;6.75;6.07;;;;;;;2.26;98.54;100670.38;7388928;19;20440;-58
2023/11/17 02:05:20;;;;;;;7.97;6.82;;;;;;;2.28;98.78;100676.34;7396063;19;20336;-55
2023/11/17 02:07:47;;;;;;;6.70;6.00;;;;;;;2.32;98.81;100680.38;7397035;19;20966;-58
2023/11/17 02:10:31;;;;;;;6.78;6.07;;;;;;;2.36;98.81;100681.78;7395898;19;20440;-58
2023/11/17 02:13:24;;;;;;;7.15;6.15;;;;;;;2.39;98.75;100686.78;7397626;19;20370;-57
2023/11/17 02:16:01;;;;;;;7.30;6.13;;;;;;;2.44;98.89;100695.09;7395621;19;20368;-60
2023/11/17 02:18:35;;;;;;;7.67;6.13;;;;;;;2.45;98.84;100694.13;7398454;19;20388;-60
2023/11/17 02:21:05;;;;;;;9.50;6.18;;;;;;;2.51;98.57;100705.06;7395656;19;20716;-59
2023/11/17 02:23:34;;;;;;;7.55;5.95;;;;;;;2.56;98.48;100709.00;7396780;19;20920;-59
2023/11/17 02:26:07;;;;;;;6.55;5.93;;;;;;;2.55;98.55;100711.72;7398199;19;20364;-61
2023/11/17 02:28:50;;;;;;;7.13;6.38;;;;;;;2.60;98.28;100709.59;7396676;19;20424;-60
2023/11/17 02:31:25;;;;;;;6.50;5.90;;;;;;;2.61;98.38;100706.84;7397965;19;20340;-59
2023/11/17 02:33:56;;;;;;;6.80;6.10;;;;;;;2.65;98.22;100710.03;7393655;19;20352;-59
2023/11/17 02:36:26;;;;;;;7.60;6.15;;;;;;;2.65;97.91;100712.66;7397303;19;20876;-59
2023/11/17 02:39:14;;;;;;;6.93;6.15;;;;;;;2.65;97.87;100715.28;7395841;19;20370;-61
2023/11/17 02:41:47;;;;;;;7.68;6.18;;;;;;;2.63;98.20;100720.63;7398338;19;20368;-60
2023/11/17 02:44:16;;;;;;;7.97;6.20;;;;;;;2.68;98.13;100727.28;7398574;19;20352;-60
2023/11/17 02:46:46;;;;;;;7.15;6.43;;;;;;;2.71;98.14;100727.06;7396689;19;20896;-60
2023/11/17 02:49:29;;;;;;;7.22;6.43;;;;;;;2.75;98.10;100726.69;7395139;19;20372;-60
2023/11/17 02:51:56;;;;;;;9.20;6.75;;;;;;;2.80;97.75;100731.53;7397618;19;20442;-60
2023/11/17 02:54:27;;;;;;;8.75;6.80;;;;;;;2.84;97.70;100736.41;7396607;19;20336;-60
2023/11/17 02:56:55;;;;;;;8.93;6.53;;;;;;;2.92;97.54;100732.34;7398533;19;20432;-61
2023/11/17 02:59:22;;;;;;;7.13;6.38;;;;;;;2.93;97.56;100726.16;7394391;19;20360;-61
2023/11/17 03:01:52;;;;;;;7.07;6.30;;;;;;;2.98;97.14;100730.06;7396716;19;20367;-59
2023/11/17 03:04:19;;;;;;;7.20;6.50;;;;;;;3.03;97.25;100732.31;7393614;19;20372;-61
2023/11/17 03:06:48;;;;;;;8.07;6.55;;;;;;;3.06;96.89;100739.94;7395021;19;20756;-61
2023/11/17 03:09:21;;;;;;;8.15;6.45;;;;;;;3.04;97.00;100745.28;7395350;19;20365;-60
2023/11/17 03:11:50;;;;;;;6.93;6.05;;;;;;;3.07;96.99;100744.22;7397404;19;20357;-61
2023/11/17 03:14:18;;;;;;;7.55;6.35;;;;;;;3.09;96.76;100747.53;7396577;19;20771;-62
2023/11/17 03:16:49;;;;;;;7.63;6.43;;;;;;;3.14;96.73;100750.59;7397113;19;20364;-59
2023/11/17 03:19:16;;;;;;;7.10;6.40;;;;;;;3.13;96.71;100754.19;7392288;19;20347;-61
2023/11/17 03:21:44;;;;;;;7.40;6.50;;;;;;;3.15;96.68;100759.31;7395495;19;20365;-61
2023/11/17 03:24:17;;;;;;;8.10;6.85;;;;;;;3.18;96.51;100757.25;7394756;19;20423;-59
2023/11/17 03:26:45;;;;;;;6.80;6.20;;;;;;;3.20;96.52;100757.16;7396367;19;20393;-60
2023/11/17 03:29:16;;;;;;;7.40;6.57;;;;;;;3.23;96.58;100767.38;7395305;19;20686;-64
2023/11/17 03:31:48;;;;;;;7.53;6.38;;;;;;;3.25;96.67;100776.78;7396034;19;20364;-60
2023/11/17 03:34:23;;;;;;;8.77;6.68;;;;;;;3.30;96.37;100770.34;7393087;19;20383;-60
2023/11/17 03:36:56;;;;;;;8.48;7.20;;;;;;;3.34;96.34;100771.75;7396792;19;20849;-60
2023/11/17 03:39:25;;;;;;;7.75;6.68;;;;;;;3.36;96.13;100768.03;7395441;19;20415;-61
2023/11/17 03:41:52;;;;;;;8.63;7.13;;;;;;;3.44;96.19;100772.63;7395176;19;20428;-60
2023/11/17 03:44:23;;;;;;;7.20;6.47;;;;;;;3.46;95.90;100773.34;7394393;19;20372;-59
2023/11/17 03:46:51;;;;;;;8.10;6.90;;;;;;;3.52;95.77;100779.88;7394831;19;20353;-60
2023/11/17 03:49:18;;;;;;;7.40;6.60;;;;;;;3.55;95.55;100788.34;7394856;19;20441;-61
2023/11/17 03:51:46;;;;;;;8.25;6.97;;;;;;;3.63;95.50;100787.69;7392182;19;20389;-59
2023/11/17 03:54:14;;;;;;;7.50;6.72;;;;;;;3.65;95.39;100793.63;7393726;19;21249;-60
2023/11/17 03:56:44;;;;;;;7.75;6.90;;;;;;;3.66;95.50;100790.91;7394760;19;20727;-62
2023/11/17 03:59:16;;;;;;;8.10;6.80;;;;;;;3.70;95.34;100788.00;7393208;19;20714;-62
2023/11/17 04:01:45;;;;;;;8.90;7.13;;;;;;;3.70;95.18;100790.63;7393151;19;20402;-62
2023/11/17 04:04:15;;;;;;;8.40;7.50;;;;;;;3.72;95.07;100797.44;7394227;19;20365;-61
2023/11/17 04:06:50;;;;;;;8.68;7.60;;;;;;;3.78;94.98;100798.69;7393478;19;20884;-61
2023/11/17 04:09:21;;;;;;;8.55;7.65;;;;;;;3.80;95.19;100800.22;7394801;19;20369;-61
2023/11/17 04:11:50;;;;;;;8.30;7.38;;;;;;;3.81;95.12;100801.91;7392561;19;20397;-59
2023/11/17 04:14:22;;;;;;;10.00;8.07;;;;;;;3.82;95.07;100808.78;7393263;19;20381;-57
2023/11/17 04:16:50;;;;;;;8.57;7.65;;;;;;;3.84;95.13;100813.94;7389910;19;20696;-62
2023/11/17 04:19:20;;;;;;;9.55;8.57;;;;;;;3.87;95.04;100800.56;7395193;19;20687;-61
2023/11/17 04:21:49;;;;;;;10.10;8.27;;;;;;;3.84;95.36;100801.63;7391928;19;20735;-60
2023/11/17 04:24:16;;;;;;;10.07;8.52;;;;;;;3.81;95.56;100808.94;7394969;19;20881;-60
2023/11/17 04:26:46;;;;;;;10.00;7.93;;;;;;;3.83;95.41;100812.28;7392914;19;20880;-61
2023/11/17 04:29:13;;;;;;;9.85;8.63;;;;;;;3.86;95.43;100815.44;7390958;19;20361;-62
2023/11/17 04:31:41;;;;;;;10.73;8.67;;;;;;;3.86;95.53;100812.84;7390691;19;20353;-60
2023/11/17 04:34:11;;;;;;;10.27;8.40;;;;;;;3.91;95.48;100814.25;7391360;19;20380;-60
2023/11/17 04:36:38;;;;;;;10.18;8.50;;;;;;;3.93;95.68;100818.44;7388610;19;20406;-61
2023/11/17 04:39:11;;;;;;;10.43;8.02;;;;;;;3.96;95.60;100825.19;7393432;19;20368;-62
2023/11/17 04:41:38;;;;;;;9.90;8.68;;;;;;;4.03;95.64;100826.34;7392181;19;20439;-61
2023/11/17 04:44:05;;;;;;;9.93;8.40;;;;;;;4.02;95.61;100828.13;7393598;19;20418;-59
2023/11/17 04:46:32;;;;;;;9.75;8.50;;;;;;;4.04;95.50;100822.78;7391746;19;20706;-61
2023/11/17 04:48:59;;;;;;;8.90;8.00;;;;;;;4.06;95.49;100826.09;7393015;19;20403;-61
2023/11/17 04:51:26;;;;;;;9.80;8.25;;;;;;;4.06;95.34;100826.91;7391294;19;20364;-61
2023/11/17 04:53:52;;;;;;;8.75;7.75;;;;;;;4.06;95.34;100837.41;7390038;19;20387;-59
2023/11/17 04:56:19;;;;;;;10.00;8.17;;;;;;;4.12;95.78;100822.09;7393098;19;20407;-61
2023/11/17 04:58:46;;;;;;;8.80;7.90;;;;;;;4.12;95.57;100829.97;7387267;19;20372;-60
2023/11/17 05:01:16;;;;;;;8.57;7.65;;;;;;;4.13;95.53;100829.84;7392312;19;20746;-61
2023/11/17 05:03:43;;;;;;;8.80;7.78;;;;;;;4.15;95.54;100835.00;7390361;19;20376;-60
2023/11/17 05:06:10;;;;;;;10.32;7.90;;;;;;;4.18;95.59;100839.97;7393482;19;20718;-59
2023/11/17 05:08:37;;;;;;;9.35;7.90;;;;;;;4.19;95.58;100831.97;7393634;19;20521;-60
2023/11/17 05:11:05;;;;;;;9.32;8.05;;;;;;;4.21;95.58;100837.09;7385973;19;20380;-58
2023/11/17 05:13:34;;;;;;;8.80;7.88;;;;;;;4.27;95.47;100840.03;7391560;19;20387;-59
2023/11/17 05:16:03;;;;;;;10.30;8.15;;;;;;;4.30;95.52;100836.31;7392898;19;20361;-60
2023/11/17 05:18:30;;;;;;;10.32;8.00;;;;;;;4.33;95.30;100838.66;7389790;19;20389;-62
2023/11/17 05:20:57;;;;;;;9.13;8.23;;;;;;;4.32;95.18;100844.88;7391396;19;20427;-61
2023/11/17 05:23:24;;;;;;;8.40;7.47;;;;;;;4.32;95.47;100846.69;7392146;19;20435;-59
2023/11/17 05:25:51;;;;;;;8.15;7.35;;;;;;;4.36;95.44;100853.34;7392322;19;20353;-61
2023/11/17 05:28:20;;;;;;;8.60;7.80;;;;;;;4.38;95.38;100839.13;7389529;19;20328;-63
2023/11/17 05:30:47;;;;;;;9.07;7.70;;;;;;;4.38;95.08;100852.25;7388537;19;20375;-59
2023/11/17 05:33:18;;;;;;;8.70;7.47;;;;;;;4.39;95.24;100851.25;7388385;19;20378;-60
2023/11/17 05:35:45;;;;;;;8.32;7.50;;;;;;;4.42;94.90;100853.66;7395414;19;20427;-61
2023/11/17 05:38:12;;;;;;;8.67;7.30;;;;;;;4.38;94.97;100862.75;7392741;19;20374;-61
2023/11/17 05:40:40;;;;;;;9.43;7.53;;;;;;;4.38;95.09;100860.13;7399520;19;20371;-61
2023/11/17 05:43:07;;;;;;;8.73;7.82;;;;;;;4.42;95.04;100858.91;7399069;19;20344;-61
2023/11/17 05:45:34;;;;;;;9.07;7.32;;;;;;;4.40;94.75;100855.56;7396444;19;20442;-61
2023/11/17 05:48:05;;;;;;;8.15;7.22;;;;;;;4.42;94.88;100874.66;7400352;19;20766;-61
2023/11/17 05:50:33;;;;;;;8.00;7.05;;;;;;;4.44;94.93;100864.00;7396876;19;20879;-61
2023/11/17 05:53:00;;;;;;;9.05;8.15;;;;;;;4.46;94.76;100868.19;7394098;19;20344;-58
2023/11/17 05:55:27;;;;;;;7.43;6.70;;;;;;;4.47;94.72;100859.31;7395042;19;20428;-60
2023/11/17 05:57:54;;;;;;;7.95;7.07;;;;;;;4.51;94.83;100867.78;7399057;19;20352;-63
2023/11/17 06:00:21;;;;;;;7.75;6.93;;;;;;;4.52;94.29;100865.97;7399651;19;20747;-61
2023/11/17 06:02:48;;;;;;;7.82;6.90;;;;;;;4.53;94.17;100865.00;7397165;19;20372;-60
2023/11/17 06:05:15;;;;;;;7.63;6.55;;;;;;;4.47;94.07;100871.63;7396885;19;20361;-61
2023/11/17 06:07:42;;;;;;;7.95;7.15;;;;;;;4.48;94.45;100858.38;7399761;19;20352;-61
2023/11/17 06:10:10;;;;;;;8.43;7.50;;;;;;;4.53;94.37;100865.00;7395749;19;20907;-60
2023/11/17 06:12:37;;;;;;;8.50;7.55;;;;;;;4.53;94.44;100867.63;7395026;19;20356;-61
2023/11/17 06:15:05;;;;;;;10.38;7.40;;;;;;;4.52;94.19;100864.19;7394067;19;20848;-58
2023/11/17 06:17:35;;;;;;;8.55;7.22;;;;;;;4.47;94.61;100867.22;7398222;19;20341;-59
2023/11/17 06:20:03;;;;;;;9.98;7.82;;;;;;;4.49;94.56;100864.47;7399664;19;20397;-60
2023/11/17 06:22:31;;;;;;;8.65;7.75;;;;;;;4.49;94.44;100877.59;7397499;19;20367;-60
2023/11/17 06:24:58;;;;;;;8.65;7.75;;;;;;;4.45;94.34;100871.75;7392824;19;20348;-59
2023/11/17 06:27:27;;;;;;;9.20;7.90;;;;;;;4.45;94.54;100884.91;7396952;19;20418;-59
2023/11/17 06:29:55;;;;;;;9.52;8.10;;;;;;;4.46;94.55;100888.34;7393139;19;20349;-58
2023/11/17 06:32:22;;;;;;;8.65;7.78;;;;;;;4.38;94.61;100896.91;7398953;19;20356;-59
2023/11/17 06:34:50;;;;;;;8.50;7.65;;;;;;;4.38;94.70;100899.53;7394317;19;20367;-60
2023/11/17 06:37:17;;;;;;;9.15;7.88;;;;;;;4.35;94.65;100894.50;7396531;19;20380;-60
2023/11/17 06:39:44;;;;;;;10.70;7.70;;;;;;;4.36;94.70;100890.94;7397741;19;20368;-59
2023/11/17 06:42:11;;;;;;;9.15;7.40;;;;;;;4.38;95.03;100904.78;7397103;19;20913;-59
2023/11/17 06:44:37;;;;;;;10.30;8.23;;;;;;;4.43;94.75;100893.88;7397683;19;20381;-60
2023/11/17 06:47:06;;;;;;;11.07;9.63;;;;;;;4.44;95.34;100901.63;7393837;19;20355;-59
2023/11/17 06:49:33;;;;;;;17.42;12.98;;;;;;;4.52;95.95;100905.38;7390696;19;20359;-58
2023/11/17 06:52:01;;;;;;;23.15;14.45;;;;;;;4.60;95.31;100905.56;7396544;19;20907;-58
2023/11/17 06:54:29;;;;;;;28.65;18.48;;;;;;;4.68;94.97;100905.75;7394539;19;20377;-59
2023/11/17 06:56:56;;;;;;;12.93;9.75;;;;;;;4.73;94.40;100914.06;7396391;19;20396;-59
2023/11/17 06:59:23;;;;;;;10.00;8.27;;;;;;;4.80;94.82;100903.84;7396574;19;20368;-58
2023/11/17 07:01:50;;;;;;;39.58;24.60;;;;;;;4.87;94.65;100911.09;7395105;19;20368;-58
2023/11/17 07:04:19;;;;;;;7.85;7.03;;;;;;;4.87;93.77;100918.97;7390650;19;20412;-59
2023/11/17 07:06:47;;;;;;;8.07;7.25;;;;;;;5.12;96.28;100911.56;7395361;19;20365;-57
2023/11/17 07:09:19;;;;;;;10.30;8.38;;;;;;;5.27;96.51;100912.88;7396154;19;20376;-59
2023/11/17 07:11:48;;;;;;;7.57;6.57;;;;;;;5.25;92.97;100917.44;7397337;19;20872;-59
2023/11/17 07:14:19;;;;;;;7.55;6.63;;;;;;;5.29;94.68;100925.88;7396161;19;20424;-59
2023/11/17 07:16:50;;;;;;;7.78;6.20;;;;;;;5.31;92.43;100927.44;7394936;19;20397;-60
2023/11/17 07:19:17;;;;;;;8.07;5.80;;;;;;;5.27;91.93;100939.19;7394703;19;20372;-61
2023/11/17 07:21:46;;;;;;;6.32;5.57;;;;;;;5.24;92.35;100923.66;7396133;19;20416;-57
2023/11/17 07:24:19;;;;;;;7.68;5.72;;;;;;;5.29;92.54;100929.34;7395975;19;20353;-58
2023/11/17 07:26:47;;;;;;;7.22;5.60;;;;;;;5.36;92.03;100936.72;7395959;19;20360;-58
2023/11/17 07:29:15;;;;;;;8.07;5.68;;;;;;;5.30;91.69;100952.06;7397432;19;21675;-59
2023/11/17 07:31:44;;;;;;;8.77;5.93;;;;;;;5.29;91.73;100957.44;7394853;19;20361;-60
2023/11/17 07:34:18;;;;;;;7.60;5.70;;;;;;;5.27;91.59;100952.34;7392429;19;20876;-58
2023/11/17 07:36:47;;;;;;;7.82;5.97;;;;;;;5.27;91.70;100954.09;7394603;19;20360;-60
2023/11/17 07:39:18;;;;;;;8.35;5.40;;;;;;;5.25;91.47;100961.31;7393755;19;20384;-58
2023/11/17 07:41:47;;;;;;;7.78;5.50;;;;;;;5.23;91.39;100969.34;7395725;19;20878;-58
2023/11/17 07:44:20;;;;;;;7.27;5.77;;;;;;;5.29;92.65;100966.19;7390562;19;20348;-58
2023/11/17 07:46:47;;;;;;;7.43;5.43;;;;;;;5.31;91.05;100966.88;7394483;19;20760;-59
2023/11/17 07:49:15;;;;;;;8.50;5.57;;;;;;;5.34;91.20;100971.03;7395093;19;20361;-58
2023/11/17 07:51:47;;;;;;;6.88;5.22;;;;;;;5.35;90.96;100977.13;7396467;19;20377;-58
2023/11/17 07:54:16;;;;;;;6.72;5.30;;;;;;;5.38;91.82;100977.69;7395125;19;20407;-57
2023/11/17 07:56:46;;;;;;;6.80;5.55;;;;;;;5.43;90.58;100974.66;7395001;19;20886;-57
2023/11/17 07:59:14;;;;;;;6.63;5.00;;;;;;;5.50;90.76;100981.88;7395739;19;20458;-58
2023/11/17 08:01:41;;;;;;;8.25;5.35;;;;;;;5.53;89.96;100972.88;7394513;19;20369;-57
2023/11/17 08:04:08;;;;;;;7.22;5.22;;;;;;;5.62;89.70;100979.97;7394965;19;20408;-58
2023/11/17 08:06:36;;;;;;;6.60;5.10;;;;;;;5.62;89.29;100968.59;7395851;19;20924;-57
2023/11/17 08:19:54;;;;;;;6.55;4.43;;;;;;;5.77;87.39;100976.94;7388279;19;20345;-62
2023/11/17 08:22:21;;;;;;;6.18;4.25;;;;;;;5.77;87.51;100982.22;7391870;19;20368;-62
2023/11/17 08:24:48;;;;;;;6.93;4.78;;;;;;;5.81;87.54;100978.34;7392563;19;20369;-62
2023/11/17 08:27:15;;;;;;;6.18;4.43;;;;;;;5.89;87.62;100978.47;7393033;19;20379;-63
2023/11/17 08:29:42;;;;;;;6.30;4.53;;;;;;;5.90;86.98;100988.03;7393345;19;20364;-63
2023/11/17 08:32:09;;;;;;;4.82;4.03;;;;;;;5.87;86.55;100988.31;7394939;19;20403;-63
2023/11/17 08:34:36;;;;;;;6.00;4.50;;;;;;;5.95;86.93;100992.91;7392793;19;20876;-62
2023/11/17 08:37:05;;;;;;;6.35;4.13;;;;;;;6.00;86.69;100991.53;7394568;19;20349;-63
2023/11/17 08:39:34;;;;;;;6.22;4.43;;;;;;;6.04;86.51;101005.28;7395259;19;20401;-63
2023/11/17 08:42:00;;;;;;;5.53;3.93;;;;;;;6.07;86.60;100990.00;7393244;19;20368;-63
2023/11/17 08:44:27;;;;;;;6.38;4.20;;;;;;;6.10;86.22;100999.47;7392087;19;20444;-63
2023/11/17 08:46:54;;;;;;;8.25;4.45;;;;;;;6.13;86.04;100999.16;7393078;19;20368;-63
2023/11/17 08:49:21;;;;;;;6.47;4.32;;;;;;;6.17;86.09;100999.72;7390185;19;20802;-62
2023/11/17 08:51:48;;;;;;;5.65;4.47;;;;;;;6.20;86.24;100995.00;7392390;19;20688;-63
2023/11/17 08:54:18;;;;;;;5.45;4.20;;;;;;;6.30;86.14;100992.38;7394088;19;20404;-63
2023/11/17 08:56:48;;;;;;;5.53;4.10;;;;;;;6.31;85.28;101002.78;7391694;19;20369;-63
2023/11/17 08:59:16;;;;;;;5.35;4.10;;;;;;;6.31;84.73;100994.03;7393773;19;20364;-63
2023/11/17 09:01:43;;;;;;;7.53;4.80;;;;;;;6.39;85.17;100988.88;7394298;19;20368;-62
2023/11/17 09:04:10;;;;;;;5.72;4.10;;;;;;;6.45;85.38;100987.50;7391856;19;20356;-63
2023/11/17 09:06:38;;;;;;;5.97;3.80;;;;;;;6.46;84.29;100992.66;7392365;19;20363;-63
2023/11/17 09:09:10;;;;;;;5.25;3.83;;;;;;;6.52;83.89;101001.78;7393794;19;20686;-63
2023/11/17 09:11:54;;;;;;;7.80;4.20;;;;;;;6.56;83.35;101007.59;7392115;19;20383;-62
2023/11/17 09:14:20;;;;;;;5.40;3.63;;;;;;;6.58;82.91;101016.19;7390041;19;20371;-63
2023/11/17 09:16:47;;;;;;;5.50;3.70;;;;;;;6.62;82.75;101005.22;7393357;19;20717;-63
2023/11/17 09:19:16;;;;;;;6.07;3.60;;;;;;;6.63;82.75;101017.44;7391171;19;20368;-63
2023/11/17 09:21:43;;;;;;;5.18;3.72;;;;;;;6.63;82.04;101008.69;7392596;19;20339;-63
2023/11/17 09:24:10;;;;;;;6.45;3.90;;;;;;;6.72;82.24;101008.69;7389649;19;20363;-63
2023/11/17 09:26:37;;;;;;;5.13;3.78;;;;;;;6.73;81.49;101006.88;7392908;19;20379;-62
2023/11/17 09:29:04;;;;;;;5.03;3.53;;;;;;;6.74;81.22;101019.09;7392711;19;20345;-62
2023/11/17 09:31:31;;;;;;;5.20;3.60;;;;;;;6.77;81.38;101013.53;7390869;19;20360;-62
2023/11/17 09:33:58;;;;;;;5.60;3.83;;;;;;;6.81;81.27;101022.81;7388242;19;20357;-63
2023/11/17 09:36:26;;;;;;;5.10;3.70;;;;;;;6.87;81.42;101030.16;7391730;19;20784;-63
2023/11/17 09:38:53;;;;;;;5.40;3.80;;;;;;;6.88;81.17;101015.16;7391660;19;20354;-62
2023/11/17 09:41:21;;;;;;;5.20;3.42;;;;;;;6.90;80.78;101019.31;7390956;19;20856;-62
2023/11/17 09:43:50;;;;;;;6.47;3.72;;;;;;;6.94;80.89;101028.59;7392461;19;20379;-63
2023/11/17 09:46:25;;;;;;;4.45;3.38;;;;;;;6.92;80.80;101021.81;7391827;19;20889;-63
2023/11/17 09:48:57;;;;;;;4.63;3.30;;;;;;;6.95;80.89;101026.81;7391796;19;20376;-62
2023/11/17 09:51:25;;;;;;;5.63;3.58;;;;;;;6.97;80.53;101024.88;7390274;19;20378;-62
2023/11/17 09:53:53;;;;;;;3.95;3.25;;;;;;;6.98;80.26;101015.97;7393480;19;20742;-63
2023/11/17 09:56:22;;;;;;;4.80;3.33;;;;;;;7.01;80.04;101025.41;7386753;19;20995;-63
2023/11/17 09:58:53;;;;;;;4.80;3.28;;;;;;;7.09;80.20;101014.97;7391665;19;21002;-62
2023/11/17 10:01:20;;;;;;;5.75;3.35;;;;;;;7.22;80.53;101033.09;7387996;19;20384;-62
2023/11/17 10:03:48;;;;;;;4.50;3.20;;;;;;;7.26;79.73;101024.75;7389386;19;20523;-63
2023/11/17 10:06:15;;;;;;;6.05;3.40;;;;;;;7.24;79.80;101028.50;7390794;19;20800;-62
2023/11/17 10:08:43;;;;;;;3.95;2.90;;;;;;;7.37;79.34;101017.63;7389691;19;20920;-63
2023/11/17 10:11:14;;;;;;;4.00;2.92;;;;;;;7.38;78.78;101027.22;7389234;19;20444;-63
2023/11/17 10:13:41;;;;;;;5.03;3.00;;;;;;;7.43;79.05;101036.34;7392284;19;20398;-62
2023/11/17 10:16:09;;;;;;;4.23;2.90;;;;;;;7.45;78.91;101028.28;7388245;19;20362;-63
2023/11/17 10:18:37;;;;;;;6.13;3.20;;;;;;;7.53;79.36;101025.75;7390346;19;20349;-62
2023/11/17 10:21:04;;;;;;;4.88;3.00;;;;;;;7.62;78.98;101026.69;7390079;19;20461;-61
2023/11/17 10:23:32;;;;;;;5.05;3.10;;;;;;;7.66;78.54;101026.22;7391053;19;20868;-62
2023/11/17 10:26:00;;;;;;;6.63;2.80;;;;;;;7.64;78.45;101022.09;7393171;19;20380;-62
2023/11/17 10:28:28;;;;;;;4.70;3.10;;;;;;;7.66;77.98;101031.50;7395918;19;20377;-63
2023/11/17 10:31:00;;;;;;;4.93;3.05;;;;;;;7.66;78.15;101028.06;7397930;19;20382;-63
2023/11/17 10:33:29;;;;;;;6.22;3.00;;;;;;;7.62;78.18;101035.41;7396127;19;20438;-62
2023/11/17 10:36:10;;;;;;;4.68;3.20;;;;;;;7.64;78.36;101037.94;7394879;19;20434;-61
2023/11/17 10:38:40;;;;;;;6.00;3.20;;;;;;;7.67;78.77;101024.41;7394361;19;20418;-62
2023/11/17 10:41:14;;;;;;;7.90;3.15;;;;;;;7.66;78.97;101036.78;7396181;19;20389;-62
2023/11/17 10:43:49;;;;;;;5.72;2.95;;;;;;;7.65;79.08;101029.88;7398431;19;20486;-62
2023/11/17 10:46:20;;;;;;;6.30;2.90;;;;;;;7.59;78.60;101030.44;7397892;19;20451;-62
2023/11/17 10:48:50;;;;;;;5.10;3.00;;;;;;;7.68;79.48;101034.84;7387744;19;20375;-61
2023/11/17 10:51:18;;;;;;;4.75;3.00;;;;;;;7.68;79.12;101034.00;7395875;19;20364;-62
2023/11/17 10:54:08;;;;;;;5.25;3.00;;;;;;;7.73;79.04;101037.84;7397780;19;20373;-60
2023/11/17 10:56:36;;;;;;;5.03;2.78;;;;;;;7.75;79.25;101040.34;7393840;19;20370;-62
2023/11/17 10:59:04;;;;;;;5.63;3.08;;;;;;;7.79;79.01;101041.72;7394974;19;20361;-62
2023/11/17 11:01:31;;;;;;;5.90;3.03;;;;;;;7.87;79.00;101038.34;7392674;19;20778;-61
2023/11/17 11:03:59;;;;;;;6.30;2.90;;;;;;;7.99;78.87;101047.72;7390625;19;20364;-62
2023/11/17 11:06:28;;;;;;;5.63;3.10;;;;;;;8.10;79.05;101034.28;7395683;19;20393;-62
2023/11/17 11:08:59;;;;;;;4.30;2.78;;;;;;;8.08;78.09;101049.47;7396409;19;20340;-62
2023/11/17 11:11:28;;;;;;;4.68;3.03;;;;;;;8.26;78.25;101044.19;7388941;19;20436;-62
2023/11/17 11:14:03;;;;;;;4.07;2.83;;;;;;;8.44;77.78;101036.28;7396179;19;20434;-61
2023/11/17 11:16:32;;;;;;;6.90;2.90;;;;;;;8.63;76.74;101050.28;7393411;19;20417;-62
2023/11/17 11:19:01;;;;;;;4.38;2.70;;;;;;;8.65;75.92;101051.81;7394289;19;20834;-62
2023/11/17 11:21:33;;;;;;;5.50;2.80;;;;;;;8.71;76.13;101051.22;7397544;19;20448;-62
2023/11/17 11:24:04;;;;;;;5.30;2.73;;;;;;;8.82;75.86;101049.28;7396172;19;20365;-62
2023/11/17 11:26:32;;;;;;;5.32;2.50;;;;;;;8.81;75.85;101058.22;7395321;19;20364;-62
2023/11/17 11:28:59;;;;;;;4.20;2.70;;;;;;;8.84;75.50;101047.31;7394096;19;20412;-62
2023/11/17 11:31:27;;;;;;;4.65;2.63;;;;;;;8.77;75.58;101050.56;7391662;19;20377;-61
2023/11/17 11:33:54;;;;;;;3.33;2.50;;;;;;;8.58;75.67;101063.97;7393370;19;20389;-62
2023/11/17 11:36:21;;;;;;;4.20;2.90;;;;;;;8.52;75.77;101064.59;7387437;19;20717;-62
2023/11/17 11:38:49;;;;;;;4.30;2.90;;;;;;;8.64;76.72;101068.66;7393598;19;20393;-62
2023/11/17 11:41:20;;;;;;;4.38;2.75;;;;;;;8.65;76.62;101064.19;7394615;19;20456;-63
2023/11/17 11:43:49;;;;;;;4.30;2.70;;;;;;;8.94;76.88;101064.75;7393818;19;20754;-63
2023/11/17 11:46:19;;;;;;;4.43;2.60;;;;;;;8.80;75.51;101078.56;7395981;19;20393;-62
2023/11/17 11:49:04;;;;;;;4.35;2.50;;;;;;;8.84;75.58;101082.56;7393567;19;20364;-61
2023/11/17 11:51:41;;;;;;;3.60;2.60;;;;;;;8.95;74.98;101092.06;7392164;19;20363;-62